Terminal Aerodrome Forecast
Issued by NWS Duluth, MN

Home | Current Version | Previous Version | Text Only | Print | Product List | Glossary On
Versions: 1 2 3 4 5 6 7 8 9 10 11 12 13 14 15 16 17 18 19 20 21 22 23 24 25
000
FTUS43 KDLH 251733
TAFDLH
TAF
KDLH 251733Z 2518/2618 30010G16KT P6SM SCT040
     FM260000 26005KT P6SM SKC
     FM260600 25004KT P6SM VCSH BKN100
     FM261500 26008KT P6SM BKN100=

USA.gov is the U.S. government's official web portal to all federal, state and local government web resources and services.